Time;durP1;ratioP1;P1;durP2;ratioP2;P2;SDS_P1;SDS_P2;PMS_P1;PMS_P2;Temp;Humidity;BMP_temperature;BMP_pressure;BME280_temperature;BME280_humidity;BME280_pressure;Samples;Min_cycle;Max_cycle;Signal;HPM_P1;HPM_P2
2021/01/16 00:16:42;;;;;;;16.63;10.90;;;3.20;78.20;;;;;;884638;23;21675;-94
2021/01/16 00:19:09;;;;;;;16.15;10.70;;;3.20;78.20;;;;;;4913746;29;20052;-93
2021/01/16 00:21:34;;;;;;;17.00;10.50;;;3.20;78.20;;;;;;4901668;29;20071;-93
2021/01/16 00:24:12;;;;;;;13.63;9.82;;;3.20;78.30;;;;;;4886003;29;20099;-94
2021/01/16 00:27:00;;;;;;;15.00;9.98;;;3.20;78.30;;;;;;4905054;29;20036;-93
2021/01/16 00:29:26;;;;;;;16.33;9.98;;;3.20;78.30;;;;;;4888987;29;20139;-92
2021/01/16 00:31:54;;;;;;;16.30;10.68;;;3.20;78.30;;;;;;4889104;29;20626;-93
2021/01/16 00:38:23;;;;;;;15.68;9.63;;;3.20;78.40;;;;;;4912759;29;20031;-93
2021/01/16 00:40:48;;;;;;;16.55;10.52;;;3.20;78.30;;;;;;4901581;29;20055;-93
2021/01/16 00:49:58;;;;;;;14.90;9.82;;;3.20;78.40;;;;;;4924180;29;20096;-93
2021/01/16 00:52:57;;;;;;;15.73;11.00;;;3.20;78.30;;;;;;4896587;29;20032;-93
2021/01/16 00:55:28;;;;;;;15.73;10.45;;;3.20;78.40;;;;;;4888550;29;20040;-92
2021/01/16 00:57:57;;;;;;;15.57;10.30;;;3.20;78.40;;;;;;4872541;29;20474;-92
2021/01/16 01:00:29;;;;;;;16.17;10.80;;;3.20;78.50;;;;;;4888189;29;20135;-92
2021/01/16 01:02:55;;;;;;;14.57;10.13;;;3.20;78.40;;;;;;4872509;29;20041;-91
2021/01/16 01:05:30;;;;;;;15.18;9.80;;;3.20;78.50;;;;;;4887338;29;20383;-92
2021/01/16 01:07:56;;;;;;;14.73;10.02;;;3.20;78.50;;;;;;4888118;29;20045;-91
2021/01/16 01:10:28;;;;;;;15.23;10.43;;;3.20;78.50;;;;;;4872905;29;20044;-91
2021/01/16 01:13:01;;;;;;;17.52;10.57;;;3.20;78.50;;;;;;4888030;29;20043;-91
2021/01/16 01:15:46;;;;;;;16.88;11.30;;;3.20;78.50;;;;;;4888157;29;20065;-91
2021/01/16 01:18:25;;;;;;;;;;;;;;;;;;;;;
2021/01/16 01:21:09;;;;;;;15.93;10.65;;;3.20;78.50;;;;;;4889929;29;20044;-92
2021/01/16 01:23:34;;;;;;;15.75;10.32;;;3.20;78.50;;;;;;4888672;29;20136;-92
2021/01/16 01:26:06;;;;;;;16.17;10.63;;;3.20;78.50;;;;;;4873110;29;20068;-92
2021/01/16 01:28:32;;;;;;;16.15;10.20;;;3.20;78.50;;;;;;4873495;29;20040;-93
2021/01/16 01:31:04;;;;;;;14.38;9.98;;;3.10;78.40;;;;;;4906450;29;20044;-92
2021/01/16 01:33:54;;;;;;;15.95;10.45;;;3.10;78.50;;;;;;4906181;29;20036;-92
2021/01/16 01:36:24;;;;;;;15.77;10.50;;;3.20;78.50;;;;;;4909423;29;20044;-92
2021/01/16 01:39:21;;;;;;;15.20;10.60;;;3.20;78.50;;;;;;4902486;29;20047;-91
2021/01/16 01:41:58;;;;;;;16.42;10.32;;;3.20;78.50;;;;;;4919861;29;20060;-92
2021/01/16 01:44:23;;;;;;;14.98;10.02;;;3.20;78.50;;;;;;4903341;29;20032;-93
2021/01/16 01:46:49;;;;;;;16.17;11.02;;;3.20;78.60;;;;;;4887823;29;20036;-93
2021/01/16 01:49:21;;;;;;;15.73;10.20;;;3.20;78.50;;;;;;4903141;29;20371;-94
2021/01/16 01:52:02;;;;;;;15.05;10.60;;;3.20;78.60;;;;;;4902662;29;20044;-94
2021/01/16 01:54:29;;;;;;;16.17;10.35;;;3.20;78.50;;;;;;4916940;23;20044;-90
2021/01/16 01:56:55;;;;;;;15.63;10.98;;;3.20;79.20;;;;;;4918913;29;20037;-90
2021/01/16 01:59:23;;;;;;;16.13;10.85;;;3.10;79.10;;;;;;4908590;29;20058;-90
2021/01/16 02:01:50;;;;;;;17.98;10.73;;;3.10;78.50;;;;;;4905290;29;20039;-89
2021/01/16 02:04:18;;;;;;;17.58;11.70;;;3.10;78.50;;;;;;4920470;29;20099;-90
2021/01/16 02:06:44;;;;;;;15.85;10.85;;;3.20;78.60;;;;;;4920730;29;20032;-90
2021/01/16 02:09:10;;;;;;;18.60;11.35;;;3.10;78.50;;;;;;4920726;29;20402;-90
2021/01/16 02:11:36;;;;;;;17.20;11.20;;;3.20;78.60;;;;;;4920049;29;20340;-90
2021/01/16 02:14:02;;;;;;;16.20;10.75;;;3.20;79.20;;;;;;4904928;29;20036;-90
2021/01/16 02:16:42;;;;;;;16.27;10.50;;;3.20;78.60;;;;;;4936954;29;20159;-90
2021/01/16 02:19:08;;;;;;;17.73;11.43;;;3.10;78.50;;;;;;4937140;29;20036;-90
2021/01/16 02:21:37;;;;;;;16.70;11.30;;;3.10;78.50;;;;;;4919532;29;20050;-90
2021/01/16 02:24:11;;;;;;;17.88;10.77;;;3.10;78.50;;;;;;4885973;29;20379;-90
2021/01/16 02:27:16;;;;;;;16.90;11.32;;;3.10;78.40;;;;;;4901291;29;20102;-90
2021/01/16 02:29:42;;;;;;;19.75;11.43;;;3.10;78.40;;;;;;4901183;29;20084;-90
2021/01/16 02:32:10;;;;;;;16.65;12.38;;;3.10;78.40;;;;;;4906666;29;20044;-89
2021/01/16 02:34:46;;;;;;;18.13;11.82;;;3.10;78.50;;;;;;4919583;29;20035;-90
2021/01/16 02:37:33;;;;;;;15.90;11.48;;;3.10;78.50;;;;;;4920219;29;20043;-89
2021/01/16 02:40:30;;;;;;;16.10;10.73;;;3.10;78.60;;;;;;4919996;29;20401;-90
2021/01/16 02:43:11;;;;;;;15.23;10.48;;;3.10;78.60;;;;;;4936769;29;20115;-90
2021/01/16 02:45:43;;;;;;;16.65;10.70;;;3.10;78.60;;;;;;4918910;29;20062;-90
2021/01/16 02:48:24;;;;;;;17.52;10.68;;;3.10;78.60;;;;;;4919594;29;20423;-90
2021/01/16 02:50:54;;;;;;;15.02;10.02;;;3.10;78.60;;;;;;4908982;29;20135;-89
2021/01/16 02:53:23;;;;;;;18.33;11.07;;;3.10;78.60;;;;;;4915384;29;20032;-90
2021/01/16 02:55:53;;;;;;;18.67;11.75;;;3.10;78.60;;;;;;4919362;29;20561;-89
2021/01/16 02:58:19;;;;;;;15.90;10.25;;;3.10;78.60;;;;;;4903733;29;20043;-89
2021/01/16 03:00:45;;;;;;;17.98;11.75;;;3.10;78.60;;;;;;4936385;29;20059;-90
2021/01/16 03:03:12;;;;;;;16.20;11.00;;;3.10;78.70;;;;;;4883999;29;20048;-89
2021/01/16 03:05:38;;;;;;;16.35;10.70;;;3.10;78.70;;;;;;4881540;29;20045;-90
2021/01/16 03:08:04;;;;;;;16.52;10.55;;;3.10;78.70;;;;;;4916254;29;20131;-90
2021/01/16 03:10:31;;;;;;;16.02;10.80;;;3.10;78.60;;;;;;4884466;29;20055;-90
2021/01/16 03:12:57;;;;;;;16.35;10.70;;;3.10;78.60;;;;;;4884725;29;20036;-90
2021/01/16 03:15:24;;;;;;;17.02;10.35;;;3.10;78.60;;;;;;4884454;29;20042;-90
2021/01/16 03:17:57;;;;;;;17.33;10.75;;;3.10;78.60;;;;;;4884811;29;20123;-90
2021/01/16 03:20:25;;;;;;;16.70;10.85;;;3.10;78.60;;;;;;4899860;29;20498;-90
2021/01/16 03:22:53;;;;;;;16.20;10.63;;;3.10;78.60;;;;;;4900152;29;20733;-90
2021/01/16 03:25:21;;;;;;;18.25;10.68;;;3.10;78.60;;;;;;4900289;29;20088;-90
2021/01/16 03:27:47;;;;;;;17.50;10.60;;;3.10;78.60;;;;;;4899768;29;20052;-90
2021/01/16 03:30:14;;;;;;;17.50;10.27;;;3.10;78.60;;;;;;4869053;29;20149;-89
2021/01/16 03:32:44;;;;;;;16.00;10.75;;;3.10;78.60;;;;;;4899513;29;20049;-90
2021/01/16 03:35:11;;;;;;;15.55;10.82;;;3.10;78.70;;;;;;4900059;29;20028;-90
2021/01/16 03:37:37;;;;;;;17.92;11.32;;;3.10;78.70;;;;;;4883835;29;20040;-90
2021/01/16 03:40:08;;;;;;;16.40;10.63;;;3.10;78.70;;;;;;4868910;29;20043;-90
2021/01/16 03:42:34;;;;;;;16.63;10.55;;;3.10;78.70;;;;;;4919139;29;20501;-90
2021/01/16 03:45:00;;;;;;;15.40;10.85;;;3.10;78.70;;;;;;4911729;29;20067;-90
2021/01/16 03:47:26;;;;;;;18.75;11.10;;;3.10;78.70;;;;;;4887032;29;20565;-90
2021/01/16 03:49:51;;;;;;;17.98;11.73;;;3.10;78.70;;;;;;4887316;29;20071;-89
2021/01/16 03:52:31;;;;;;;17.02;10.98;;;3.10;78.70;;;;;;4919004;29;20039;-90
2021/01/16 03:54:58;;;;;;;16.42;10.85;;;3.10;78.70;;;;;;4918359;29;20096;-90
2021/01/16 03:57:24;;;;;;;16.40;10.93;;;3.10;78.70;;;;;;4907842;29;20028;-90
2021/01/16 03:59:51;;;;;;;17.38;11.13;;;3.10;78.60;;;;;;4898503;29;20044;-90
2021/01/16 04:02:17;;;;;;;15.98;10.77;;;3.10;78.60;;;;;;4898395;29;20127;-90
2021/01/16 04:04:44;;;;;;;17.27;10.75;;;3.10;78.60;;;;;;4884185;29;20519;-90
2021/01/16 04:07:09;;;;;;;17.73;11.10;;;3.10;78.70;;;;;;4893790;29;20075;-89
2021/01/16 04:09:35;;;;;;;18.33;11.15;;;3.10;78.60;;;;;;4898880;29;20078;-90
2021/01/16 04:12:01;;;;;;;17.33;10.60;;;3.10;78.60;;;;;;4868489;29;20040;-90
2021/01/16 04:14:26;;;;;;;17.88;11.32;;;3.10;79.20;;;;;;4899095;29;20028;-90
2021/01/16 04:16:52;;;;;;;18.35;11.60;;;3.10;78.60;;;;;;4868409;29;20075;-90
2021/01/16 04:19:18;;;;;;;17.05;11.35;;;3.10;78.60;;;;;;4884293;29;20131;-90
2021/01/16 04:21:45;;;;;;;16.17;11.23;;;3.10;78.60;;;;;;4899344;29;20032;-89
2021/01/16 04:24:10;;;;;;;18.05;11.18;;;3.10;78.60;;;;;;4899235;29;20058;-90
2021/01/16 04:26:36;;;;;;;17.85;11.85;;;3.10;78.60;;;;;;4914639;29;20130;-89
2021/01/16 04:29:02;;;;;;;19.75;11.77;;;3.10;78.60;;;;;;4883723;29;20050;-90
2021/01/16 04:31:27;;;;;;;18.10;11.57;;;3.10;78.60;;;;;;4868097;29;20111;-90
2021/01/16 04:33:53;;;;;;;19.20;11.55;;;3.10;78.60;;;;;;4908562;29;20473;-90
2021/01/16 04:36:19;;;;;;;16.75;11.02;;;3.10;78.60;;;;;;4880711;29;20044;-90
2021/01/16 04:38:44;;;;;;;17.80;12.00;;;3.10;78.60;;;;;;4864808;29;20041;-90
2021/01/16 04:41:12;;;;;;;19.48;12.32;;;3.10;78.60;;;;;;4849972;29;20372;-90
2021/01/16 04:43:38;;;;;;;16.98;11.57;;;3.10;78.60;;;;;;4880326;29;20044;-90
2021/01/16 04:46:08;;;;;;;16.48;11.25;;;3.10;78.60;;;;;;4880555;29;20051;-90
2021/01/16 04:48:36;;;;;;;18.33;11.75;;;3.10;78.50;;;;;;4864920;29;20049;-90
2021/01/16 04:51:03;;;;;;;20.13;12.55;;;3.10;78.50;;;;;;4895958;29;20040;-90
2021/01/16 04:53:37;;;;;;;19.30;11.57;;;3.10;78.50;;;;;;4897098;29;20025;-89
2021/01/16 04:56:05;;;;;;;22.30;13.15;;;3.10;78.60;;;;;;4899988;29;20040;-90
2021/01/16 04:58:34;;;;;;;20.10;13.17;;;3.10;78.60;;;;;;4902454;29;20044;-90
2021/01/16 05:01:03;;;;;;;20.30;13.00;;;3.10;78.60;;;;;;4917922;29;20039;-89
2021/01/16 05:03:44;;;;;;;19.70;12.93;;;3.10;78.60;;;;;;4918073;29;20039;-89
2021/01/16 05:06:11;;;;;;;19.33;12.85;;;3.10;78.60;;;;;;4917695;29;20036;-90
2021/01/16 05:08:38;;;;;;;19.95;12.48;;;3.10;79.20;;;;;;4902157;29;20120;-89
2021/01/16 05:11:15;;;;;;;20.90;14.00;;;3.00;78.50;;;;;;4917922;29;20040;-90
2021/01/16 05:13:46;;;;;;;19.15;12.20;;;3.10;78.50;;;;;;4920906;29;20137;-89
2021/01/16 05:16:14;;;;;;;21.20;13.32;;;3.10;78.60;;;;;;4905740;29;20043;-89
2021/01/16 05:18:42;;;;;;;18.58;12.30;;;3.10;78.60;;;;;;4905353;29;20036;-90
2021/01/16 05:21:09;;;;;;;19.37;13.10;;;3.10;78.60;;;;;;4921799;29;20508;-89
2021/01/16 05:23:41;;;;;;;20.20;12.38;;;3.10;78.60;;;;;;4920861;29;20066;-89
2021/01/16 05:26:07;;;;;;;18.33;12.07;;;3.10;78.60;;;;;;4920996;29;20070;-90
2021/01/16 05:28:33;;;;;;;19.05;12.40;;;3.10;78.60;;;;;;4921158;29;20050;-89
2021/01/16 05:31:02;;;;;;;19.75;12.15;;;3.10;79.20;;;;;;4889678;29;20045;-89
2021/01/16 05:33:30;;;;;;;18.75;12.35;;;3.10;78.60;;;;;;4898957;29;20036;-89
2021/01/16 05:35:59;;;;;;;18.88;12.55;;;3.10;78.60;;;;;;4883220;29;20184;-89
2021/01/16 05:38:36;;;;;;;22.48;13.95;;;3.10;78.60;;;;;;4900003;29;20044;-90
2021/01/16 05:41:08;;;;;;;18.75;12.75;;;3.10;78.60;;;;;;4899963;29;20040;-89
2021/01/16 05:43:35;;;;;;;21.20;13.30;;;3.10;78.60;;;;;;4898556;29;20036;-89
2021/01/16 05:46:04;;;;;;;20.95;13.25;;;3.00;78.60;;;;;;4871383;29;20044;-89
2021/01/16 05:48:31;;;;;;;22.15;12.82;;;3.00;78.60;;;;;;4883298;29;20414;-89
2021/01/16 05:50:58;;;;;;;19.50;12.45;;;3.00;78.60;;;;;;4898297;29;20041;-90
2021/01/16 05:53:25;;;;;;;18.88;12.63;;;3.10;78.70;;;;;;4899133;29;20053;-89
2021/01/16 05:55:53;;;;;;;20.63;12.82;;;3.00;78.60;;;;;;4904768;29;20115;-89
2021/01/16 05:58:19;;;;;;;18.52;11.98;;;3.10;78.60;;;;;;4920721;29;20035;-89
2021/01/16 06:00:50;;;;;;;21.02;13.25;;;3.10;78.60;;;;;;4920441;29;20040;-89
2021/01/16 06:03:18;;;;;;;17.98;12.13;;;3.10;78.60;;;;;;4936371;29;20126;-89
2021/01/16 06:05:49;;;;;;;21.20;13.55;;;3.10;78.60;;;;;;4904399;29;20139;-89
2021/01/16 06:08:15;;;;;;;21.15;13.02;;;3.10;78.60;;;;;;4920432;29;20039;-89
2021/01/16 06:10:43;;;;;;;20.60;13.48;;;3.10;78.60;;;;;;4920011;29;20052;-89
2021/01/16 06:13:15;;;;;;;21.23;12.88;;;3.00;78.60;;;;;;4937286;29;20035;-89
2021/01/16 06:15:48;;;;;;;20.65;12.27;;;3.10;78.60;;;;;;4936963;29;20047;-88
2021/01/16 06:18:36;;;;;;;20.42;13.30;;;3.10;78.60;;;;;;4920423;29;20095;-89
2021/01/16 06:21:03;;;;;;;22.05;12.52;;;3.00;78.60;;;;;;4919852;29;20509;-89
2021/01/16 06:23:31;;;;;;;19.85;13.07;;;3.10;78.60;;;;;;4887740;29;20051;-88
2021/01/16 06:25:57;;;;;;;20.83;13.15;;;3.10;78.70;;;;;;4877491;29;20381;-89
2021/01/16 06:28:30;;;;;;;19.20;12.27;;;3.10;78.70;;;;;;4881159;29;20047;-89
2021/01/16 06:30:57;;;;;;;19.73;12.35;;;3.10;78.70;;;;;;4882339;29;20096;-89
2021/01/16 06:33:30;;;;;;;20.65;12.73;;;3.00;78.60;;;;;;4898476;29;20047;-89
2021/01/16 06:36:05;;;;;;;19.73;11.98;;;3.10;78.70;;;;;;4900815;29;20136;-89
2021/01/16 06:38:34;;;;;;;17.10;12.00;;;3.10;78.70;;;;;;4885452;29;20052;-89
2021/01/16 06:41:16;;;;;;;20.38;12.23;;;3.10;78.60;;;;;;4900550;29;20488;-89
2021/01/16 06:43:45;;;;;;;20.00;13.35;;;3.10;78.60;;;;;;4916657;29;20079;-89
2021/01/16 06:46:15;;;;;;;19.77;13.00;;;3.10;78.60;;;;;;4917822;29;20440;-89
2021/01/16 06:48:47;;;;;;;20.00;12.88;;;3.10;78.60;;;;;;4916455;29;20418;-89
2021/01/16 06:51:24;;;;;;;18.52;12.13;;;3.10;78.60;;;;;;4870239;29;20052;-89
2021/01/16 06:53:50;;;;;;;17.60;11.70;;;3.10;78.60;;;;;;4881022;29;20051;-87
2021/01/16 06:56:25;;;;;;;17.85;12.73;;;3.10;78.60;;;;;;4881381;29;20063;-87
2021/01/16 06:58:54;;;;;;;21.13;13.65;;;3.10;78.60;;;;;;4881020;29;20043;-87
2021/01/16 07:01:29;;;;;;;21.10;13.70;;;3.10;78.60;;;;;;4890117;29;20036;-87
2021/01/16 07:04:02;;;;;;;22.00;13.02;;;3.10;78.60;;;;;;4918520;29;20039;-87
2021/01/16 07:06:43;;;;;;;18.10;12.13;;;3.10;78.70;;;;;;4933003;29;20394;-87
2021/01/16 07:09:10;;;;;;;19.30;13.15;;;3.10;78.60;;;;;;4880999;29;20100;-87
2021/01/16 07:11:45;;;;;;;18.20;11.95;;;3.10;78.60;;;;;;4905343;29;20491;-87
2021/01/16 07:14:11;;;;;;;18.77;11.77;;;3.10;78.60;;;;;;4919113;29;20487;-87
2021/01/16 07:16:36;;;;;;;20.90;12.15;;;3.10;78.60;;;;;;4918801;29;20084;-87
2021/01/16 07:19:04;;;;;;;23.33;12.82;;;3.10;78.60;;;;;;4887033;29;20040;-92
2021/01/16 07:21:29;;;;;;;20.42;13.05;;;3.10;78.60;;;;;;4904721;29;20490;-94
2021/01/16 07:23:56;;;;;;;19.75;13.25;;;3.10;78.60;;;;;;4905305;29;20043;-94
2021/01/16 07:26:22;;;;;;;19.88;12.75;;;3.10;78.60;;;;;;4904822;29;20051;-94
2021/01/16 07:28:50;;;;;;;19.38;11.77;;;3.10;78.60;;;;;;4883586;29;20384;-93
2021/01/16 07:31:16;;;;;;;19.17;13.00;;;3.00;78.60;;;;;;4883398;29;20047;-94
2021/01/16 07:33:44;;;;;;;19.17;11.88;;;3.10;78.60;;;;;;4883749;29;20032;-93
2021/01/16 07:36:15;;;;;;;23.10;15.00;;;3.10;78.60;;;;;;4882767;29;20059;-93
2021/01/16 07:38:44;;;;;;;19.48;13.20;;;3.10;78.60;;;;;;4883475;29;20578;-93
2021/01/16 07:41:20;;;;;;;19.27;12.55;;;3.10;78.70;;;;;;4868219;29;20541;-93
2021/01/16 07:43:56;;;;;;;24.20;15.15;;;3.10;78.70;;;;;;4883353;29;20505;-93
2021/01/16 07:46:28;;;;;;;21.65;13.40;;;3.10;78.70;;;;;;4881263;29;20047;-88
2021/01/16 07:48:59;;;;;;;21.05;13.02;;;3.00;78.60;;;;;;4881228;29;20044;-87
2021/01/16 07:51:34;;;;;;;20.48;12.98;;;3.00;78.60;;;;;;4865160;29;20091;-87
2021/01/16 07:54:03;;;;;;;18.63;12.63;;;3.10;78.70;;;;;;4915802;29;20040;-88
2021/01/16 07:56:40;;;;;;;19.95;12.55;;;3.10;78.70;;;;;;4904558;29;20495;-87
2021/01/16 07:59:21;;;;;;;21.20;12.85;;;3.10;78.70;;;;;;4915825;29;20040;-87
2021/01/16 08:02:07;;;;;;;20.33;12.77;;;3.10;78.70;;;;;;4899197;29;20071;-88
2021/01/16 08:04:42;;;;;;;18.88;12.23;;;3.10;78.70;;;;;;4916138;29;20036;-87
2021/01/16 08:07:09;;;;;;;18.88;12.27;;;3.10;78.60;;;;;;4917710;29;20497;-87
2021/01/16 08:09:50;;;;;;;17.20;12.00;;;3.10;78.60;;;;;;4923611;23;20043;-91
2021/01/16 08:12:18;;;;;;;20.50;13.10;;;3.10;78.70;;;;;;4937559;29;20036;-91
2021/01/16 08:14:44;;;;;;;21.42;13.25;;;3.10;78.60;;;;;;4920529;29;20046;-91
2021/01/16 08:17:26;;;;;;;20.20;12.98;;;3.10;79.30;;;;;;4889140;29;20127;-91
2021/01/16 08:20:00;;;;;;;18.85;12.02;;;3.10;78.70;;;;;;4901580;29;20060;-91
2021/01/16 08:22:36;;;;;;;18.30;12.25;;;3.10;78.60;;;;;;4918440;29;20028;-91
2021/01/16 08:25:04;;;;;;;21.23;14.43;;;3.10;78.60;;;;;;4901356;29;20075;-91
2021/01/16 08:27:30;;;;;;;20.17;13.75;;;3.10;78.60;;;;;;4870573;29;20490;-91
2021/01/16 08:29:57;;;;;;;21.90;14.43;;;3.10;78.70;;;;;;4885733;29;20076;-91
2021/01/16 08:32:23;;;;;;;20.52;13.70;;;3.10;78.70;;;;;;4885726;29;20130;-91
2021/01/16 08:34:53;;;;;;;22.20;14.45;;;3.10;78.70;;;;;;4885751;29;20517;-92
2021/01/16 08:37:42;;;;;;;22.17;14.57;;;3.10;78.70;;;;;;4901325;29;20036;-92
2021/01/16 08:40:09;;;;;;;;;;;3.10;78.70;;;;;;4876514;29;20100;-92
2021/01/16 08:42:49;;;;;;;19.08;12.50;;;3.10;78.70;;;;;;4901385;29;20009;-91
2021/01/16 08:45:16;;;;;;;18.00;12.18;;;3.10;78.70;;;;;;4901253;29;20084;-91
2021/01/16 08:47:53;;;;;;;19.08;12.35;;;3.10;78.70;;;;;;4887894;29;20060;-91
2021/01/16 08:50:19;;;;;;;19.75;13.45;;;3.10;78.70;;;;;;4905172;29;20043;-90
2021/01/16 08:52:45;;;;;;;20.52;13.48;;;3.10;78.70;;;;;;4889501;29;20036;-90
2021/01/16 08:55:10;;;;;;;20.63;14.00;;;3.10;78.70;;;;;;4889418;29;20040;-91
2021/01/16 08:57:38;;;;;;;21.63;13.90;;;3.10;78.70;;;;;;4878236;29;20088;-91
2021/01/16 09:00:15;;;;;;;24.55;14.73;;;3.10;79.30;;;;;;4920434;29;20071;-91
2021/01/16 09:02:42;;;;;;;24.55;15.40;;;3.10;78.80;;;;;;4899551;29;20498;-91
2021/01/16 09:05:24;;;;;;;24.25;15.35;;;3.10;78.80;;;;;;4893167;29;20082;-91
2021/01/16 09:07:50;;;;;;;22.25;14.65;;;3.10;78.80;;;;;;4873542;29;20501;-91
2021/01/16 09:10:23;;;;;;;24.17;14.20;;;3.10;78.80;;;;;;4904175;29;20083;-91
2021/01/16 09:12:50;;;;;;;26.80;16.00;;;3.10;78.80;;;;;;4908686;29;20027;-91
2021/01/16 09:15:26;;;;;;;24.83;16.23;;;3.10;78.80;;;;;;4923141;29;20044;-91
2021/01/16 09:18:08;;;;;;;23.33;14.45;;;3.10;78.90;;;;;;4923198;29;20405;-92
2021/01/16 09:20:59;;;;;;;23.30;14.73;;;3.10;78.80;;;;;;4923169;29;20042;-91
2021/01/16 09:23:31;;;;;;;20.75;14.00;;;3.10;78.80;;;;;;4922908;29;20036;-91
2021/01/16 09:26:17;;;;;;;19.27;13.50;;;3.10;78.80;;;;;;4922953;29;20038;-91
2021/01/16 09:28:56;;;;;;;28.27;16.58;;;3.10;78.70;;;;;;4907435;29;20493;-92
2021/01/16 09:31:53;;;;;;;26.13;16.30;;;3.10;78.70;;;;;;4897560;29;20044;-91
2021/01/16 09:34:20;;;;;;;22.13;15.18;;;3.10;78.70;;;;;;4886970;29;20031;-94
2021/01/16 09:36:49;;;;;;;24.65;15.90;;;3.10;78.70;;;;;;4891308;29;20040;-93
2021/01/16 09:39:14;;;;;;;;;;;3.10;78.80;;;;;;4922581;29;20143;-93
2021/01/16 09:41:40;;;;;;;23.65;14.65;;;3.10;78.70;;;;;;4922487;29;19950;-94
2021/01/16 09:44:06;;;;;;;23.80;15.25;;;3.10;78.70;;;;;;4902856;29;20048;-93
2021/01/16 09:46:36;;;;;;;20.63;13.93;;;3.10;78.70;;;;;;4884842;29;20035;-91
2021/01/16 09:49:07;;;;;;;22.85;14.77;;;3.20;78.80;;;;;;4896393;29;20374;-91
2021/01/16 09:51:35;;;;;;;23.52;14.70;;;3.20;78.80;;;;;;4932068;29;20445;-89
2021/01/16 09:54:14;;;;;;;22.70;13.52;;;3.20;78.80;;;;;;4900968;29;20135;-92
2021/01/16 09:56:56;;;;;;;20.92;14.13;;;3.20;78.80;;;;;;4910794;29;20028;-92
2021/01/16 09:59:23;;;;;;;21.55;13.85;;;3.20;78.80;;;;;;4916831;29;20079;-91
2021/01/16 10:02:12;;;;;;;20.00;13.07;;;3.20;78.80;;;;;;4921741;29;20032;-92
2021/01/16 10:04:42;;;;;;;24.65;14.88;;;3.20;78.70;;;;;;4922475;29;20036;-92
2021/01/16 10:07:12;;;;;;;23.05;13.73;;;3.20;78.70;;;;;;4921829;29;20042;-91
2021/01/16 10:09:47;;;;;;;22.02;14.38;;;3.20;78.60;;;;;;4921488;29;20052;-91
2021/01/16 10:12:38;;;;;;;23.58;14.65;;;3.20;78.60;;;;;;4920869;29;20039;-91
2021/01/16 10:15:06;;;;;;;24.48;14.77;;;3.20;78.50;;;;;;4921675;29;20032;-91
2021/01/16 10:17:32;;;;;;;22.52;14.82;;;3.30;78.60;;;;;;4908195;29;20449;-92
2021/01/16 10:20:06;;;;;;;26.05;15.50;;;3.30;78.60;;;;;;4887474;29;20036;-91
2021/01/16 10:22:43;;;;;;;22.10;14.40;;;3.30;78.50;;;;;;4902872;29;20036;-91
2021/01/16 10:25:15;;;;;;;23.92;15.35;;;3.30;78.50;;;;;;4903056;29;20036;-91
2021/01/16 10:27:56;;;;;;;25.92;16.33;;;3.30;78.40;;;;;;4872499;29;20040;-91
2021/01/16 10:30:30;;;;;;;25.85;15.50;;;3.30;78.40;;;;;;4914929;29;20486;-90
2021/01/16 10:32:56;;;;;;;28.92;16.50;;;3.30;78.30;;;;;;4919241;29;20050;-91
2021/01/16 10:35:40;;;;;;;28.63;17.38;;;3.30;78.30;;;;;;4912245;29;20051;-91
2021/01/16 10:38:13;;;;;;;27.45;17.60;;;3.30;78.20;;;;;;4897592;29;20467;-91
2021/01/16 10:40:54;;;;;;;26.25;15.18;;;3.30;78.10;;;;;;4895338;29;20060;-91
2021/01/16 10:43:37;;;;;;;26.55;16.95;;;3.40;78.10;;;;;;4911051;29;20083;-91
2021/01/16 10:46:32;;;;;;;;;;;;;;;;;;;;;
2021/01/16 10:49:22;;;;;;;24.15;15.90;;;3.40;78.00;;;;;;4917648;29;20032;-91
2021/01/16 10:51:59;;;;;;;29.58;19.27;;;3.40;77.90;;;;;;4909736;29;20031;-90
2021/01/16 10:54:28;;;;;;;29.70;18.08;;;3.40;77.60;;;;;;4914999;29;20070;-91
2021/01/16 10:57:06;;;;;;;28.80;18.20;;;3.40;77.60;;;;;;4919468;29;20051;-91
2021/01/16 10:59:46;;;;;;;31.48;18.75;;;3.30;77.60;;;;;;4896091;29;20059;-90
2021/01/16 11:02:36;;;;;;;28.55;18.70;;;3.40;77.60;;;;;;4910220;29;20027;-91
2021/01/16 11:05:49;;;;;;;27.83;17.88;;;3.40;77.50;;;;;;4911439;29;20032;-90
2021/01/16 11:08:30;;;;;;;26.67;17.05;;;3.40;77.50;;;;;;4910986;29;20031;-90
2021/01/16 11:11:26;;;;;;;27.55;16.77;;;3.40;77.50;;;;;;4896371;29;20044;-92
2021/01/16 11:13:52;;;;;;;28.10;17.20;;;3.40;77.50;;;;;;4893302;29;20047;-92
2021/01/16 11:16:24;;;;;;;25.83;16.00;;;3.40;77.50;;;;;;4911497;29;20032;-92
2021/01/16 11:18:51;;;;;;;26.50;16.05;;;3.40;77.40;;;;;;4920323;29;20047;-92
2021/01/16 11:21:52;;;;;;;25.00;15.63;;;3.40;77.30;;;;;;4890364;29;20426;-92
2021/01/16 11:24:55;;;;;;;23.67;15.52;;;3.40;77.20;;;;;;4892939;29;20035;-92
2021/01/16 11:27:26;;;;;;;23.77;15.07;;;3.50;77.20;;;;;;4912357;29;20734;-92
2021/01/16 11:29:54;;;;;;;22.52;13.45;;;3.40;77.10;;;;;;4913591;29;20039;-90
2021/01/16 11:32:21;;;;;;;19.80;12.77;;;3.40;76.90;;;;;;4919305;29;20031;-90
2021/01/16 11:35:11;;;;;;;18.52;12.82;;;3.50;76.90;;;;;;4896372;29;20387;-90
2021/01/16 11:37:49;;;;;;;21.00;13.00;;;3.50;76.90;;;;;;4909110;29;20035;-91
2021/01/16 11:40:34;;;;;;;20.23;12.35;;;3.50;76.60;;;;;;4918484;29;20032;-91
2021/01/16 11:43:07;;;;;;;18.63;11.85;;;3.50;76.30;;;;;;4937309;29;20071;-91
2021/01/16 11:45:33;;;;;;;19.15;12.57;;;3.50;76.40;;;;;;4910450;29;20047;-91
2021/01/16 11:48:01;;;;;;;20.17;12.65;;;3.50;76.20;;;;;;4893706;29;20072;-90
2021/01/16 11:50:29;;;;;;;17.92;11.48;;;3.50;76.00;;;;;;4894169;29;20509;-87
2021/01/16 11:52:54;;;;;;;17.20;10.98;;;3.50;76.10;;;;;;4894698;29;20378;-87
2021/01/16 11:55:20;;;;;;;19.42;11.90;;;3.50;76.10;;;;;;4915613;29;20035;-87
2021/01/16 11:57:46;;;;;;;15.65;10.60;;;3.50;75.90;;;;;;4915710;29;20087;-86
2021/01/16 12:00:17;;;;;;;17.60;11.15;;;3.50;75.80;;;;;;4931629;29;20031;-87
2021/01/16 12:02:51;;;;;;;16.98;11.20;;;3.50;75.90;;;;;;4914483;29;20036;-86
2021/01/16 12:05:18;;;;;;;17.45;11.02;;;3.50;75.90;;;;;;4911086;29;20034;-85
2021/01/16 12:07:52;;;;;;;15.70;9.95;;;3.50;75.60;;;;;;4898236;29;20036;-90
2021/01/16 12:10:26;;;;;;;13.77;9.02;;;3.50;75.50;;;;;;4918281;29;20048;-90
2021/01/16 12:12:56;;;;;;;16.67;9.27;;;3.60;75.40;;;;;;4914593;29;20039;-90
2021/01/16 12:15:27;;;;;;;11.25;7.22;;;3.60;75.10;;;;;;4918220;29;20031;-91
2021/01/16 12:17:54;;;;;;;11.15;6.53;;;3.50;74.50;;;;;;4919278;29;20072;-90
2021/01/16 12:20:23;;;;;;;9.65;6.43;;;3.50;74.00;;;;;;4902806;29;20051;-90
2021/01/16 12:22:54;;;;;;;10.70;6.70;;;3.50;74.70;;;;;;4918782;29;20409;-90
2021/01/16 12:25:21;;;;;;;11.35;6.60;;;3.50;74.30;;;;;;4918699;29;20043;-90
2021/01/16 12:27:51;;;;;;;8.98;5.70;;;3.50;74.00;;;;;;4904208;29;20490;-90
2021/01/16 12:30:18;;;;;;;9.80;6.18;;;3.50;74.00;;;;;;4916499;29;20119;-89
2021/01/16 12:32:45;;;;;;;8.10;5.65;;;3.50;73.70;;;;;;4884806;29;20127;-89
2021/01/16 12:35:12;;;;;;;8.07;5.40;;;3.50;73.60;;;;;;4918005;29;20032;-89
2021/01/16 12:37:39;;;;;;;10.02;6.40;;;3.50;73.60;;;;;;4896407;29;20064;-89
2021/01/16 12:40:18;;;;;;;10.57;6.50;;;3.50;73.40;;;;;;4916160;29;20474;-90
2021/01/16 12:42:44;;;;;;;9.38;6.45;;;3.50;72.70;;;;;;4917465;29;20068;-90
2021/01/16 12:45:17;;;;;;;9.48;6.15;;;3.50;73.60;;;;;;4918610;29;20401;-86
2021/01/16 12:47:49;;;;;;;10.43;6.30;;;3.50;72.90;;;;;;4935124;29;20114;-86
2021/01/16 12:50:15;;;;;;;10.65;6.75;;;3.50;72.60;;;;;;4935305;29;20047;-86
2021/01/16 12:52:46;;;;;;;9.35;6.80;;;3.50;72.80;;;;;;4918054;29;20028;-86
2021/01/16 12:55:18;;;;;;;9.48;6.40;;;3.50;72.90;;;;;;4902884;29;20489;-85
2021/01/16 12:57:46;;;;;;;10.48;7.03;;;3.60;73.10;;;;;;4935292;29;20043;-86
2021/01/16 13:00:19;;;;;;;14.18;8.32;;;3.50;73.10;;;;;;4935612;29;20035;-87
2021/01/16 13:02:53;;;;;;;13.05;8.50;;;3.60;72.70;;;;;;4918813;29;20160;-87
2021/01/16 13:05:26;;;;;;;13.35;9.02;;;3.50;72.10;;;;;;4918851;29;20035;-89
2021/01/16 13:07:59;;;;;;;14.32;8.98;;;3.50;72.40;;;;;;4919150;29;20497;-87
2021/01/16 13:10:28;;;;;;;12.60;9.30;;;3.50;72.10;;;;;;4918262;29;20043;-88
2021/01/16 13:12:54;;;;;;;14.38;9.23;;;3.50;72.40;;;;;;4918467;29;20048;-88
2021/01/16 13:15:46;;;;;;;13.77;9.30;;;3.50;72.50;;;;;;4903370;29;20040;-87
2021/01/16 13:18:17;;;;;;;14.90;9.73;;;3.50;72.50;;;;;;4919738;29;20122;-88
2021/01/16 13:20:52;;;;;;;13.65;9.77;;;3.60;72.60;;;;;;4928880;29;20067;-88
2021/01/16 13:26:21;;;;;;;14.82;10.05;;;3.60;72.70;;;;;;4924187;29;20043;-89
2021/01/16 13:28:51;;;;;;;18.73;12.02;;;3.60;72.90;;;;;;4935180;29;20035;-88
2021/01/16 13:31:24;;;;;;;17.75;12.00;;;3.60;72.50;;;;;;4903304;29;20549;-88
2021/01/16 13:33:52;;;;;;;19.35;12.80;;;3.50;72.20;;;;;;4920938;29;20553;-88